createdAt,value
2023-03-30T04:12:55.134Z,100912.31
2023-03-30T04:15:58.068Z,100912.31
2023-03-30T04:19:01.004Z,100918.06
2023-03-30T04:22:05.998Z,100906.56
2023-03-30T04:25:14.879Z,100910.59
2023-03-30T04:28:21.842Z,100900.69
2023-03-30T04:31:24.361Z,100902.81
2023-03-30T04:34:30.862Z,100908.81
2023-03-30T04:37:33.602Z,100909.06
2023-03-30T04:40:37.944Z,100911.06
2023-03-30T04:43:40.355Z,100912.81
2023-03-30T04:46:42.828Z,100907.03
2023-03-30T04:49:45.409Z,100902.38
2023-03-30T04:52:48.189Z,100902.19
2023-03-30T04:55:52.918Z,100892.78
2023-03-30T04:58:56.132Z,100894.00
2023-03-30T05:01:58.659Z,100897.28
2023-03-30T05:05:01.405Z,100895.00
2023-03-30T05:08:04.095Z,100900.72
2023-03-30T05:11:06.748Z,100898.56
2023-03-30T05:14:11.171Z,100893.31
2023-03-30T05:17:13.722Z,100899.13
2023-03-30T05:20:17.190Z,100903.62
2023-03-30T05:23:19.712Z,100905.31
2023-03-30T05:26:23.904Z,100905.09
2023-03-30T05:29:26.587Z,100904.91
2023-03-30T05:32:29.637Z,100903.91
2023-03-30T05:35:34.158Z,100902.34
2023-03-30T05:38:37.066Z,100900.75
2023-03-30T05:41:39.636Z,100892.31
2023-03-30T05:44:42.106Z,100895.75
2023-03-30T05:47:46.379Z,100889.94
2023-03-30T05:50:49.125Z,100889.41
2023-03-30T05:53:52.352Z,100882.91
2023-03-30T05:56:55.593Z,100883.06
2023-03-30T05:59:58.212Z,100885.00
2023-03-30T06:03:01.142Z,100888.75
2023-03-30T06:06:07.951Z,100894.34
2023-03-30T06:09:11.169Z,100909.56
2023-03-30T06:12:13.604Z,100894.09
2023-03-30T06:15:16.495Z,100893.59
2023-03-30T06:18:20.291Z,100884.91
2023-03-30T06:21:25.436Z,100883.16
2023-03-30T06:24:28.647Z,100869.34
2023-03-30T06:27:33.139Z,100871.19
2023-03-30T06:30:35.960Z,100873.09
2023-03-30T06:33:41.499Z,100859.69
2023-03-30T06:36:46.602Z,100868.59
2023-03-30T06:39:48.997Z,100861.44
2023-03-30T06:42:51.641Z,100860.59
2023-03-30T06:45:58.590Z,100850.66
2023-03-30T06:49:01.911Z,100847.69
2023-03-30T06:52:08.693Z,100843.50
2023-03-30T06:55:11.927Z,100841.34
2023-03-30T06:58:14.122Z,100854.50
2023-03-30T07:01:17.098Z,100864.16
2023-03-30T07:04:21.950Z,100862.25
2023-03-30T07:07:29.448Z,100854.22
2023-03-30T07:10:32.944Z,100860.91
2023-03-30T07:13:36.113Z,100855.00
2023-03-30T07:16:38.525Z,100859.03
2023-03-30T07:19:41.090Z,100858.53
2023-03-30T07:22:43.461Z,100853.41
2023-03-30T07:25:46.973Z,100852.06
2023-03-30T07:28:49.377Z,100853.94
2023-03-30T07:31:51.800Z,100856.09
2023-03-30T07:34:54.933Z,100856.63
2023-03-30T07:38:03.273Z,100860.09
2023-03-30T07:41:13.090Z,100858.25
2023-03-30T07:44:16.077Z,100853.00
2023-03-30T07:47:18.476Z,100857.00
2023-03-30T07:50:21.599Z,100855.91
2023-03-30T07:53:24.247Z,100865.03
2023-03-30T07:56:27.183Z,100869.34
2023-03-30T07:59:29.597Z,100876.31
2023-03-30T08:02:32.506Z,100867.75
2023-03-30T08:05:35.608Z,100861.00
2023-03-30T08:08:41.146Z,100857.78
2023-03-30T08:11:44.259Z,100853.78
2023-03-30T08:14:46.530Z,100844.06
2023-03-30T08:17:49.396Z,100852.38
2023-03-30T08:20:53.691Z,100851.59
2023-03-30T08:23:59.050Z,100852.88
2023-03-30T08:27:01.504Z,100852.28
2023-03-30T08:30:04.623Z,100835.34
2023-03-30T08:33:08.941Z,100837.78
2023-03-30T08:36:12.695Z,100841.09
2023-03-30T08:39:16.305Z,100838.19
2023-03-30T08:42:30.009Z,100842.47
2023-03-30T08:45:42.748Z,100835.75
2023-03-30T08:48:48.400Z,100833.03
2023-03-30T08:51:53.611Z,100826.47
2023-03-30T08:54:58.028Z,100835.62
2023-03-30T08:58:09.077Z,100837.37
2023-03-30T09:01:34.699Z,100839.31
2023-03-30T09:04:57.412Z,100826.19
2023-03-30T09:08:21.678Z,100814.88
2023-03-30T09:11:38.404Z,100835.03
2023-03-30T09:14:46.490Z,100818.97
2023-03-30T09:18:00.622Z,100813.25
2023-03-30T09:21:06.495Z,100814.72
2023-03-30T09:24:18.550Z,100811.31
2023-03-30T09:28:00.472Z,100812.66
2023-03-30T09:31:46.200Z,100810.25
2023-03-30T09:35:14.993Z,100803.72
2023-03-30T09:38:21.565Z,100791.81
2023-03-30T09:41:49.833Z,100794.09
2023-03-30T09:45:00.188Z,100783.84
2023-03-30T09:48:08.719Z,100770.25
2023-03-30T09:51:18.846Z,100763.81
2023-03-30T09:54:24.382Z,100773.09
2023-03-30T09:57:32.356Z,100761.22
2023-03-30T10:00:35.231Z,100757.53
2023-03-30T10:03:38.927Z,100768.97
2023-03-30T10:06:51.378Z,100765.28
2023-03-30T10:09:54.912Z,100748.84
2023-03-30T10:13:12.193Z,100745.19
2023-03-30T10:16:33.552Z,100743.19
2023-03-30T10:19:38.429Z,100742.22
2023-03-30T10:22:57.843Z,100747.03
2023-03-30T10:26:04.437Z,100745.37
2023-03-30T10:29:11.646Z,100737.06
2023-03-30T10:32:31.823Z,100733.97
2023-03-30T10:35:37.665Z,100727.88
2023-03-30T10:38:42.062Z,100713.94
2023-03-30T10:41:47.000Z,100710.19
2023-03-30T10:45:04.736Z,100697.91
2023-03-30T10:48:20.871Z,100693.44
2023-03-30T10:51:44.451Z,100703.59
2023-03-30T10:54:56.766Z,100700.00
2023-03-30T10:58:23.434Z,100685.88
2023-03-30T11:01:49.140Z,100678.09
2023-03-30T11:05:33.703Z,100672.31
2023-03-30T11:08:42.347Z,100667.66
2023-03-30T11:12:01.517Z,100674.63
2023-03-30T11:15:14.082Z,100676.84
2023-03-30T11:18:51.766Z,100672.44
2023-03-30T11:22:17.599Z,100671.72
2023-03-30T11:25:23.806Z,100673.41
2023-03-30T11:28:56.010Z,100668.28
2023-03-30T11:32:23.135Z,100672.78
2023-03-30T11:35:47.393Z,100658.19
2023-03-30T11:38:56.806Z,100653.94
2023-03-30T11:42:13.443Z,100652.97
2023-03-30T11:45:43.506Z,100638.09
2023-03-30T11:49:10.264Z,100636.28
2023-03-30T11:52:42.375Z,100634.19
2023-03-30T11:56:02.023Z,100622.12
2023-03-30T11:59:09.180Z,100617.75
2023-03-30T12:02:37.886Z,100602.66
2023-03-30T12:05:45.395Z,100610.75
2023-03-30T12:09:13.856Z,100601.06
2023-03-30T12:12:18.873Z,100605.41
2023-03-30T12:15:23.040Z,100585.91
2023-03-30T12:18:28.346Z,100575.53
2023-03-30T12:21:36.919Z,100574.44
2023-03-30T12:25:04.120Z,100563.28
2023-03-30T12:28:09.325Z,100553.38
2023-03-30T12:31:12.564Z,100547.97
2023-03-30T12:34:14.954Z,100551.84
2023-03-30T12:37:34.737Z,100551.12
2023-03-30T12:40:39.181Z,100543.69
2023-03-30T12:43:47.943Z,100534.28
2023-03-30T12:46:58.375Z,100532.22
2023-03-30T12:50:15.904Z,100529.16
2023-03-30T12:53:41.314Z,100522.91
2023-03-30T12:57:17.311Z,100514.63
2023-03-30T13:00:40.942Z,100501.19
2023-03-30T13:03:50.259Z,100505.75
2023-03-30T13:07:23.035Z,100503.44
2023-03-30T13:10:31.727Z,100501.47
2023-03-30T13:13:55.897Z,100500.69
2023-03-30T13:16:58.648Z,100499.25
2023-03-30T13:20:29.244Z,100488.16
2023-03-30T13:23:35.421Z,100484.91
2023-03-30T13:26:43.787Z,100480.91
2023-03-30T13:29:56.556Z,100492.31
2023-03-30T13:33:01.766Z,100482.13
2023-03-30T13:36:15.423Z,100479.44
2023-03-30T13:39:25.921Z,100476.75
2023-03-30T13:42:56.540Z,100473.53
2023-03-30T13:46:13.310Z,100473.97
2023-03-30T13:49:50.282Z,100471.34
2023-03-30T13:52:53.857Z,100461.03
2023-03-30T13:55:56.655Z,100456.28
2023-03-30T13:59:14.461Z,100452.06
2023-03-30T14:02:19.307Z,100446.66
2023-03-30T14:05:24.554Z,100433.53
2023-03-30T14:08:26.707Z,100431.91
2023-03-30T14:11:37.700Z,100428.28
2023-03-30T14:14:46.542Z,100417.03
2023-03-30T14:17:52.102Z,100407.84
2023-03-30T14:21:00.693Z,100419.22
2023-03-30T14:24:04.613Z,100411.62
2023-03-30T14:27:16.576Z,100404.13
2023-03-30T14:30:27.148Z,100390.91
2023-03-30T14:33:29.256Z,100385.34
2023-03-30T14:36:31.721Z,100380.34
2023-03-30T14:39:42.791Z,100369.41
2023-03-30T14:42:45.709Z,100359.84
2023-03-30T14:45:49.354Z,100348.13
2023-03-30T14:48:52.688Z,100332.34
2023-03-30T14:52:04.103Z,100329.00
2023-03-30T14:55:14.935Z,100321.19
2023-03-30T14:58:19.926Z,100321.34
2023-03-30T15:01:30.812Z,100312.63
2023-03-30T15:04:37.258Z,100306.94
2023-03-30T15:07:40.044Z,100304.06
2023-03-30T15:10:50.730Z,100305.31
2023-03-30T15:13:57.868Z,100298.97
2023-03-30T15:17:04.118Z,100292.75
2023-03-30T15:20:08.261Z,100285.44
2023-03-30T15:23:13.270Z,100280.69
2023-03-30T15:26:17.556Z,100266.72
2023-03-30T15:29:20.249Z,100272.13
2023-03-30T15:32:43.516Z,100269.69
2023-03-30T15:35:46.044Z,100273.97
2023-03-30T15:38:54.113Z,100286.03
2023-03-30T15:41:56.182Z,100303.50
2023-03-30T15:45:13.119Z,100310.78
2023-03-30T15:48:19.815Z,100318.09
